Vandenberg Air Force Base
KVBG : now visible

Airfield :











YOU CAN JOIN US ON...

 
LOGIN :

Register | Disclaimer

   EN    FR    IT 

 









Legend :    VFR   Marginal VFR   IFR   Intensive IFR   Very Intensive IFR
Visi :
Ceiling :
>= 8 km
>= 3000ft
5 to 8 km
1000 to 3000 ft
1500m to 5 km
500 to 1000 ft
800 to 1500m
200 to 500 ft
< 800m
< 200 ft
Symbols :   Thunderstorms  Fog  Heavy snow  Heavy precipitations  Wind > 20 kt







- Airport Elevation : 369 ft


KVBG - Vandenberg Air Force Base

CURRENT METAR :
  • 210823Z AUTO 35003KT 10SM OVC006 14/13 A2994 RMK AO2 SLP141 $

EXPIRED METARs :
  • 210758Z AUTO 00000KT 10SM OVC007 14/13 A2994 RMK AO2 SLP141 T01410128 401990139 $
  • 210703Z AUTO 00000KT 10SM OVC007 14/13 A2994 RMK AO2 SLP141
  • 210658Z AUTO 04005KT 10SM OVC008 14/13 A2994 RMK AO2 SLP141 T01430127 $
  • 210643Z AUTO 36003KT 10SM OVC007 14/13 A2994 RMK AO2 SLP141
  • 210633Z AUTO 34005KT 10SM OVC008 14/13 A2994 RMK AO2 SLP141
  • 210558Z AUTO 35004KT 10SM OVC007 14/13 A2994 RMK AO2 SLP141 T01420128 10182 20141 52009 $
  • 210543Z AUTO 31003KT 10SM OVC007 14/13 A2994 RMK AO2 SLP141 $

Expired Forecast.
KZLA FIR / North America



MET'MAP, your aeronautical weather chart ! - Copyright ORBIFLY December 2007 - Disclaimer

ORBIFLY MET'MAP TEAM :

Programming & Development : Alexandra Zaïnal
Concept & Development : Baudouin d'Aumeries
Co-Development & Prog : Marc-Olivier Méhu
Technical & hardware support : Manuel Goepfert

Contact : metmap@orbifly.com




SOURCES & CREDITS :

   NOAA       Earth
Advisory